Time;durP1;ratioP1;P1;durP2;ratioP2;P2;SDS_P1;SDS_P2;PMS_P1;PMS_P2;Temp;Humidity;BMP_temperature;BMP_pressure;BME280_temperature;BME280_humidity;BME280_pressure;Samples;Min_cycle;Max_cycle;Signal;HPM_P1;HPM_P2
2022/02/18 00:01:42;;;;;;;23.60;4.47;;;;;;;5.44;94.18;95964.09;5019723;28;20037;-80
2022/02/18 00:04:07;;;;;;;26.30;4.00;;;;;;;5.43;93.98;95968.50;5036796;28;20087;-80
2022/02/18 00:06:33;;;;;;;20.23;4.33;;;;;;;5.46;93.82;95969.19;5037502;28;20025;-80
2022/02/18 00:08:59;;;;;;;19.80;3.43;;;;;;;5.31;94.82;95982.59;5037067;28;20045;-80
2022/02/18 00:11:24;;;;;;;24.53;4.40;;;;;;;5.27;95.46;95996.03;5042915;28;20056;-80
2022/02/18 00:13:50;;;;;;;21.83;4.77;;;;;;;5.23;95.64;95987.66;5018514;28;20065;-80
2022/02/18 00:16:16;;;;;;;18.10;4.00;;;;;;;5.19;95.74;95986.25;5019052;28;20131;-80
2022/02/18 00:18:41;;;;;;;22.03;5.30;;;;;;;5.16;95.81;95984.75;5036663;28;20037;-80
2022/02/18 00:21:07;;;;;;;24.60;4.77;;;;;;;5.08;96.11;95979.38;5018300;28;20037;-80
2022/02/18 00:23:34;;;;;;;21.43;4.47;;;;;;;5.10;95.96;95992.28;5036697;28;20060;-80
2022/02/18 00:26:00;;;;;;;19.37;3.67;;;;;;;5.11;96.24;95986.09;5018287;28;20140;-80
2022/02/18 00:28:26;;;;;;;25.50;6.20;;;;;;;5.08;96.10;95984.56;5035369;28;20075;-80
2022/02/18 00:30:53;;;;;;;21.17;4.73;;;;;;;5.08;96.62;95983.75;5034971;28;20376;-80
2022/02/18 00:33:19;;;;;;;19.90;4.77;;;;;;;5.17;94.86;95982.97;5034482;28;20044;-80
2022/02/18 00:35:48;;;;;;;22.77;4.33;;;;;;;5.13;95.30;95989.38;5034882;28;20087;-80
2022/02/18 00:38:16;;;;;;;26.33;5.27;;;;;;;5.22;94.11;95986.00;5018478;28;20038;-80
2022/02/18 00:40:42;;;;;;;17.97;3.90;;;;;;;5.20;94.60;95993.13;5018135;28;20043;-80
2022/02/18 00:43:07;;;;;;;23.10;3.97;;;;;;;5.11;95.16;95986.91;5018427;28;20032;-80
2022/02/18 00:45:33;;;;;;;25.97;6.03;;;;;;;5.07;94.97;95979.50;5034505;28;20075;-82
2022/02/18 00:48:01;;;;;;;23.03;3.33;;;;;;;5.11;94.50;95970.47;5035031;28;20033;-80
2022/02/18 00:50:27;;;;;;;22.47;4.20;;;;;;;5.07;95.81;95971.69;5035006;28;20048;-79
2022/02/18 00:52:52;;;;;;;21.27;5.47;;;;;;;5.10;94.59;95976.66;5034127;28;20045;-80
2022/02/18 00:55:21;;;;;;;23.10;4.87;;;;;;;5.10;94.80;95985.28;5034625;28;20501;-80
2022/02/18 00:57:47;;;;;;;27.60;5.47;;;;;;;5.03;95.02;95975.50;5017925;28;20116;-80
2022/02/18 01:00:16;;;;;;;23.73;4.47;;;;;;;5.10;94.29;95993.09;5035294;28;20025;-81
2022/02/18 01:02:43;;;;;;;16.87;3.80;;;;;;;5.07;95.12;95976.91;5034210;28;20189;-80
2022/02/18 01:05:09;;;;;;;19.00;3.87;;;;;;;5.03;94.89;95985.91;5017935;28;20063;-79
2022/02/18 01:07:35;;;;;;;14.43;3.13;;;;;;;5.08;94.77;95983.75;5034482;28;20033;-80
2022/02/18 01:10:03;;;;;;;16.80;4.37;;;;;;;5.08;94.37;95986.38;5017545;28;20562;-80
2022/02/18 01:12:28;;;;;;;31.57;7.00;;;;;;;5.05;94.55;95999.66;5033534;28;20057;-79
2022/02/18 01:14:59;;;;;;;26.97;6.37;;;;;;;5.15;93.65;96000.50;5034072;28;20658;-79
2022/02/18 01:17:24;;;;;;;19.80;4.20;;;;;;;5.09;93.97;96009.69;5034313;28;20655;-78
2022/02/18 01:19:50;;;;;;;18.27;3.90;;;;;;;5.10;94.23;96002.72;5033976;28;20056;-79
2022/02/18 01:22:16;;;;;;;23.27;4.40;;;;;;;5.11;94.38;96002.56;5033679;28;20029;-80
2022/02/18 01:24:42;;;;;;;21.23;3.33;;;;;;;5.20;93.89;96006.19;5017085;28;20267;-80
2022/02/18 01:27:08;;;;;;;17.60;3.27;;;;;;;5.16;93.86;95996.94;5017167;28;20494;-80
2022/02/18 01:29:39;;;;;;;20.20;3.83;;;;;;;5.12;94.45;95993.78;5033993;28;20057;-80
2022/02/18 01:32:12;;;;;;;16.00;3.07;;;;;;;5.12;94.63;95990.34;5033311;28;20068;-80
2022/02/18 01:34:40;;;;;;;21.67;4.20;;;;;;;5.22;94.06;95972.13;5016482;28;20056;-80
2022/02/18 01:37:10;;;;;;;17.20;3.27;;;;;;;5.22;94.62;95966.94;5016834;28;20049;-80
2022/02/18 01:39:35;;;;;;;16.10;3.40;;;;;;;5.27;94.93;95959.53;5017370;28;20037;-80
2022/02/18 01:42:02;;;;;;;25.83;5.10;;;;;;;5.36;94.34;95971.75;5016926;28;20502;-80
2022/02/18 01:44:42;;;;;;;21.73;3.80;;;;;;;5.44;93.33;95961.50;5016831;28;20075;-81
2022/02/18 01:47:19;;;;;;;18.87;4.20;;;;;;;5.48;93.69;95970.69;5017812;28;20040;-80
2022/02/18 01:49:46;;;;;;;18.13;4.47;;;;;;;5.56;93.01;95956.97;5016706;28;20038;-80
2022/02/18 01:52:14;;;;;;;15.80;3.73;;;;;;;5.60;92.81;95950.53;5033885;28;20491;-80
2022/02/18 01:54:40;;;;;;;18.73;4.33;;;;;;;5.61;93.18;95971.28;5032415;28;20178;-81
2022/02/18 01:57:06;;;;;;;19.43;3.90;;;;;;;5.61;93.65;95960.03;5033403;28;20076;-80
2022/02/18 01:59:32;;;;;;;22.00;5.37;;;;;;;5.70;92.78;95963.59;5015209;28;20044;-79
2022/02/18 02:01:58;;;;;;;20.17;4.13;;;;;;;5.76;92.11;95960.44;5014654;28;20037;-79
2022/02/18 02:04:28;;;;;;;22.17;3.60;;;;;;;5.68;92.88;95956.72;5016799;28;20499;-80
2022/02/18 02:06:58;;;;;;;16.17;3.53;;;;;;;5.70;92.92;95959.22;5016461;28;20033;-78
2022/02/18 02:09:25;;;;;;;25.77;4.47;;;;;;;5.75;92.79;95950.97;5016560;28;20082;-79
2022/02/18 02:11:53;;;;;;;20.77;4.07;;;;;;;5.72;93.44;95936.41;5032933;28;20034;-80
2022/02/18 02:14:20;;;;;;;18.37;3.77;;;;;;;5.76;92.92;95937.78;5016713;28;20182;-80
2022/02/18 02:16:46;;;;;;;15.70;3.10;;;;;;;5.80;93.17;95940.94;5032830;28;20487;-79
2022/02/18 02:19:12;;;;;;;24.07;4.50;;;;;;;5.83;92.62;95932.84;5033284;28;20052;-80
2022/02/18 02:21:38;;;;;;;21.27;3.90;;;;;;;5.81;92.94;95932.97;5016685;28;20037;-80
2022/02/18 02:24:05;;;;;;;19.63;3.73;;;;;;;5.83;92.91;95953.72;5031872;28;20511;-79
2022/02/18 02:26:33;;;;;;;16.70;4.30;;;;;;;5.83;92.33;95971.97;5017588;28;20056;-80
2022/02/18 02:29:00;;;;;;;16.70;3.40;;;;;;;5.74;93.93;95976.25;5017074;28;20561;-80
2022/02/18 02:31:26;;;;;;;19.33;3.93;;;;;;;5.81;93.00;95969.50;5032749;28;20029;-80
2022/02/18 02:33:55;;;;;;;16.83;4.07;;;;;;;5.83;92.90;95945.88;5016863;28;20090;-80
2022/02/18 02:36:21;;;;;;;22.43;3.97;;;;;;;5.83;93.17;95938.03;5018122;28;20033;-79
2022/02/18 02:38:48;;;;;;;17.37;4.03;;;;;;;5.80;93.29;95949.59;5033706;28;20056;-80
2022/02/18 02:41:16;;;;;;;19.77;3.80;;;;;;;5.82;93.54;95939.84;5017716;28;20059;-80
2022/02/18 02:43:43;;;;;;;18.83;3.90;;;;;;;5.83;93.93;95940.66;5017627;28;20558;-79
2022/02/18 02:46:09;;;;;;;19.07;2.90;;;;;;;5.73;94.46;95932.81;5017552;28;20042;-80
2022/02/18 02:48:35;;;;;;;22.60;4.47;;;;;;;5.73;94.46;95925.00;5018113;28;20034;-80
2022/02/18 02:51:11;;;;;;;20.20;3.63;;;;;;;5.67;94.91;95918.56;5019668;28;20090;-80
2022/02/18 02:53:39;;;;;;;19.77;3.10;;;;;;;5.68;94.69;95898.50;5017828;28;20037;-80
2022/02/18 02:56:06;;;;;;;15.73;3.77;;;;;;;5.61;95.56;95921.72;5017181;28;20053;-80
2022/02/18 02:58:32;;;;;;;14.13;3.33;;;;;;;5.69;94.62;95921.03;5017703;28;20037;-83
2022/02/18 03:00:58;;;;;;;19.90;3.30;;;;;;;5.61;95.04;95944.38;5017717;28;20030;-80
2022/02/18 03:03:37;;;;;;;17.37;3.90;;;;;;;5.57;95.80;95951.63;5018840;28;20029;-80
2022/02/18 03:06:03;;;;;;;11.77;2.47;;;;;;;5.55;96.50;95927.47;5017878;28;20124;-80
2022/02/18 03:08:30;;;;;;;19.93;4.30;;;;;;;5.55;96.25;95930.06;5017550;28;20686;-80
2022/02/18 03:11:15;;;;;;;22.53;5.13;;;;;;;5.62;95.58;95914.69;5019570;28;20486;-80
2022/02/18 03:13:54;;;;;;;11.00;2.87;;;;;;;5.61;96.25;95920.91;5033981;28;20034;-80
2022/02/18 03:16:21;;;;;;;17.97;3.57;;;;;;;5.57;97.10;95917.72;5018142;28;20048;-80
2022/02/18 03:18:48;;;;;;;23.20;4.33;;;;;;;5.55;97.30;95911.00;5034044;28;20390;-80
2022/02/18 03:21:14;;;;;;;21.73;4.27;;;;;;;5.60;96.73;95906.19;5034229;28;20033;-80
2022/02/18 03:23:46;;;;;;;19.87;3.83;;;;;;;5.59;96.78;95900.13;5034787;28;20040;-80
2022/02/18 03:26:25;;;;;;;17.77;3.40;;;;;;;5.55;97.09;95903.16;5021369;28;20041;-80
2022/02/18 03:29:05;;;;;;;15.00;3.60;;;;;;;5.58;97.30;95908.94;5018842;28;20080;-81
2022/02/18 03:31:57;;;;;;;14.67;3.67;;;;;;;5.53;97.49;95903.28;5032117;28;20479;-80
2022/02/18 03:34:23;;;;;;;14.07;3.67;;;;;;;5.62;96.67;95899.88;5017209;28;20038;-80
2022/02/18 03:36:49;;;;;;;21.70;3.37;;;;;;;5.62;96.77;95901.66;5020488;28;20116;-80
2022/02/18 03:39:17;;;;;;;16.73;3.60;;;;;;;5.64;97.00;95897.13;5038197;28;20024;-80
2022/02/18 03:41:43;;;;;;;22.00;4.47;;;;;;;5.59;97.40;95900.13;5038522;28;20418;-80
2022/02/18 03:44:10;;;;;;;13.33;3.60;;;;;;;5.59;98.07;95910.56;5020387;28;20109;-80
2022/02/18 03:46:47;;;;;;;16.10;3.23;;;;;;;5.62;97.88;95912.09;5036699;28;20087;-80
2022/02/18 03:49:13;;;;;;;21.17;4.83;;;;;;;5.59;98.08;95909.75;5036591;28;20033;-79
2022/02/18 03:51:38;;;;;;;19.93;3.07;;;;;;;5.55;98.70;95904.00;5020684;28;20033;-80
2022/02/18 03:54:04;;;;;;;22.27;4.60;;;;;;;5.56;99.03;95910.84;5036111;28;20402;-80
2022/02/18 03:56:34;;;;;;;12.27;2.60;;;;;;;5.54;98.80;95901.53;5020449;28;20152;-80
2022/02/18 03:58:59;;;;;;;16.47;3.53;;;;;;;5.56;98.65;95900.41;5035992;28;20033;-81
2022/02/18 04:01:26;;;;;;;14.53;3.23;;;;;;;5.48;99.48;95891.63;5035949;28;20040;-80
2022/02/18 04:03:53;;;;;;;18.57;3.10;;;;;;;5.44;100.00;95891.09;5019978;28;20026;-80
2022/02/18 04:06:29;;;;;;;20.07;4.70;;;;;;;5.31;100.00;95882.69;5036617;28;20018;-80
2022/02/18 04:09:03;;;;;;;18.37;4.90;;;;;;;5.30;100.00;95900.13;5036116;28;20041;-80
2022/02/18 04:11:47;;;;;;;17.58;3.28;;;;;;;5.27;100.00;95895.19;5036925;28;20100;-78
2022/02/18 04:14:13;;;;;;;19.70;3.53;;;;;;;5.18;100.00;95898.59;5020614;28;20037;-80
2022/02/18 04:16:40;;;;;;;14.17;2.90;;;;;;;5.03;100.00;95892.94;5019408;28;20022;-81
2022/02/18 04:19:19;;;;;;;16.30;3.50;;;;;;;4.99;100.00;95894.16;5036946;28;20037;-79
2022/02/18 04:21:52;;;;;;;15.97;5.00;;;;;;;4.98;100.00;95874.25;5020503;28;20289;-80
2022/02/18 04:24:35;;;;;;;12.18;2.72;;;;;;;4.99;100.00;95886.31;5022250;28;20041;-80
2022/02/18 04:27:02;;;;;;;18.90;3.97;;;;;;;4.87;100.00;95879.59;5019899;28;20480;-80
2022/02/18 04:29:28;;;;;;;19.63;4.27;;;;;;;4.78;100.00;95883.00;5035782;28;20040;-80
2022/02/18 04:31:54;;;;;;;14.40;3.13;;;;;;;4.71;100.00;95887.91;5019603;28;20021;-80
2022/02/18 04:34:20;;;;;;;13.50;2.47;;;;;;;4.64;100.00;95876.34;5019646;28;20522;-80
2022/02/18 04:36:46;;;;;;;17.07;4.13;;;;;;;4.62;100.00;95886.06;5035831;28;20040;-80
2022/02/18 04:39:12;;;;;;;19.07;4.50;;;;;;;4.56;100.00;95886.59;5018663;28;20045;-80
2022/02/18 04:41:38;;;;;;;15.70;4.03;;;;;;;4.45;100.00;95877.91;5033664;28;20116;-80
2022/02/18 04:44:05;;;;;;;18.10;6.17;;;;;;;4.49;100.00;95881.94;5033204;28;20091;-80
2022/02/18 04:46:30;;;;;;;17.57;4.73;;;;;;;4.43;100.00;95874.63;5033711;28;20048;-79
2022/02/18 04:48:58;;;;;;;21.83;3.93;;;;;;;4.39;100.00;95862.84;5032468;28;20418;-79
2022/02/18 04:51:24;;;;;;;15.23;3.37;;;;;;;4.36;100.00;95868.31;5033237;28;20034;-79
2022/02/18 04:53:49;;;;;;;20.30;3.93;;;;;;;4.38;100.00;95870.75;5034835;28;20107;-80
2022/02/18 04:56:18;;;;;;;23.17;4.40;;;;;;;4.31;100.00;95860.03;5017228;28;20048;-79
2022/02/18 04:58:44;;;;;;;15.93;3.67;;;;;;;4.27;100.00;95869.06;5018340;28;20491;-79
2022/02/18 05:01:10;;;;;;;16.67;3.47;;;;;;;4.28;100.00;95852.50;5033812;28;20429;-80
2022/02/18 05:03:36;;;;;;;17.63;2.80;;;;;;;4.27;100.00;95865.66;5017407;28;20029;-80
2022/02/18 05:06:03;;;;;;;21.30;6.43;;;;;;;4.28;100.00;95849.88;5033590;28;20108;-80
2022/02/18 05:08:31;;;;;;;15.07;3.07;;;;;;;4.27;100.00;95843.03;5018337;28;20562;-80
2022/02/18 05:10:57;;;;;;;15.73;4.07;;;;;;;4.17;100.00;95852.59;5018742;28;20068;-80
2022/02/18 05:13:22;;;;;;;16.70;3.97;;;;;;;4.15;100.00;95844.06;5034463;28;20042;-79
2022/02/18 05:15:48;;;;;;;12.93;2.87;;;;;;;4.14;100.00;95832.03;5017773;28;20044;-80
2022/02/18 05:18:14;;;;;;;17.30;4.03;;;;;;;4.14;100.00;95837.22;5017701;28;20033;-80
2022/02/18 05:20:40;;;;;;;17.00;3.00;;;;;;;4.16;100.00;95837.94;5018348;28;20046;-82
2022/02/18 05:23:06;;;;;;;14.37;3.27;;;;;;;4.16;100.00;95833.53;5035542;28;20022;-80
2022/02/18 05:25:34;;;;;;;19.10;3.57;;;;;;;4.26;100.00;95831.00;5034020;28;20052;-80
2022/02/18 05:28:02;;;;;;;14.13;2.80;;;;;;;4.32;100.00;95825.25;5034599;28;20116;-80
2022/02/18 05:30:28;;;;;;;13.03;3.03;;;;;;;4.28;100.00;95818.66;5034381;28;20471;-80
2022/02/18 05:32:54;;;;;;;13.00;3.00;;;;;;;4.32;100.00;95811.41;5033980;28;20037;-80
2022/02/18 05:35:20;;;;;;;20.77;4.00;;;;;;;4.32;100.00;95801.00;5035434;28;20029;-81
2022/02/18 05:37:45;;;;;;;19.57;3.13;;;;;;;4.38;100.00;95806.50;5034405;28;20052;-82
2022/02/18 05:40:11;;;;;;;13.53;3.20;;;;;;;4.39;100.00;95789.09;5034298;28;20029;-80
2022/02/18 05:42:37;;;;;;;14.47;4.13;;;;;;;4.44;100.00;95792.13;5034148;28;20483;-80
2022/02/18 05:45:05;;;;;;;12.90;3.10;;;;;;;4.55;100.00;95778.19;5016906;28;20021;-80
2022/02/18 05:47:35;;;;;;;17.00;4.33;;;;;;;4.52;100.00;95778.44;5013486;28;20495;-80
2022/02/18 05:50:04;;;;;;;19.00;4.00;;;;;;;4.55;100.00;95778.19;5032403;28;20048;-80
2022/02/18 05:52:29;;;;;;;24.40;4.07;;;;;;;4.52;100.00;95768.03;5032364;28;20030;-80
2022/02/18 05:54:55;;;;;;;18.30;4.40;;;;;;;4.55;100.00;95772.97;5031492;28;20774;-80
2022/02/18 05:57:21;;;;;;;12.93;3.13;;;;;;;4.56;100.00;95770.25;5031094;28;20048;-79
2022/02/18 05:59:47;;;;;;;20.10;4.10;;;;;;;4.58;100.00;95764.91;5048637;28;20045;-78
2022/02/18 06:02:13;;;;;;;16.63;3.80;;;;;;;4.64;100.00;95765.19;5015471;28;20040;-80
2022/02/18 06:04:39;;;;;;;22.40;4.13;;;;;;;4.66;100.00;95759.84;5029602;28;20399;-78
2022/02/18 06:07:04;;;;;;;24.07;5.17;;;;;;;4.73;100.00;95745.34;5033340;28;20479;-80
2022/02/18 06:09:30;;;;;;;19.60;5.30;;;;;;;4.82;100.00;95741.91;5032871;28;20036;-80
2022/02/18 06:11:55;;;;;;;15.67;4.23;;;;;;;4.83;100.00;95733.16;5066730;28;20041;-79
2022/02/18 06:14:21;;;;;;;12.30;3.17;;;;;;;4.86;100.00;95729.41;5065886;28;20040;-79
2022/02/18 06:16:47;;;;;;;18.80;5.20;;;;;;;4.95;100.00;95734.63;5016391;28;20073;-80
2022/02/18 06:19:13;;;;;;;16.37;5.73;;;;;;;4.91;100.00;95735.06;5016094;28;20022;-80
2022/02/18 06:21:40;;;;;;;16.10;4.97;;;;;;;5.03;100.00;95730.53;5032170;28;20688;-79
2022/02/18 06:24:10;;;;;;;14.40;4.53;;;;;;;5.11;100.00;95728.88;5032487;28;20033;-79
2022/02/18 06:26:36;;;;;;;19.40;4.77;;;;;;;5.22;100.00;95720.09;5033178;28;20087;-79
2022/02/18 06:29:03;;;;;;;15.73;3.43;;;;;;;5.25;100.00;95722.44;5033543;28;20801;-80
2022/02/18 06:31:29;;;;;;;13.47;2.97;;;;;;;5.33;100.00;95717.34;5017108;28;20446;-79
2022/02/18 06:33:55;;;;;;;13.63;2.87;;;;;;;5.43;100.00;95712.09;5066620;28;20029;-80
2022/02/18 06:36:22;;;;;;;14.67;3.00;;;;;;;5.43;100.00;95707.72;5016533;28;20029;-83
2022/02/18 06:38:47;;;;;;;18.60;3.30;;;;;;;5.52;100.00;95705.22;5031690;28;20109;-80
2022/02/18 06:41:14;;;;;;;14.80;3.53;;;;;;;5.56;100.00;95690.94;5032827;28;20076;-80
2022/02/18 06:43:41;;;;;;;11.73;3.07;;;;;;;5.65;100.00;95690.09;5034487;28;20052;-80
2022/02/18 06:46:06;;;;;;;17.53;3.40;;;;;;;5.81;100.00;95690.31;5033584;28;20670;-80
2022/02/18 06:48:32;;;;;;;15.40;3.43;;;;;;;5.91;99.39;95693.69;5035177;28;20042;-80
2022/02/18 06:50:58;;;;;;;15.90;4.60;;;;;;;5.93;98.08;95695.38;5033586;28;20100;-80
2022/02/18 06:53:24;;;;;;;12.60;2.57;;;;;;;6.00;97.10;95688.59;5017283;28;20103;-81
2022/02/18 06:55:52;;;;;;;13.40;2.30;;;;;;;5.99;96.29;95687.78;5033564;28;20041;-80
2022/02/18 06:58:18;;;;;;;11.77;2.13;;;;;;;5.98;96.60;95680.94;5033247;28;20052;-81
2022/02/18 07:00:44;;;;;;;21.87;4.17;;;;;;;6.00;96.43;95673.78;5017285;28;20042;-80
2022/02/18 07:03:11;;;;;;;15.47;2.50;;;;;;;5.99;95.64;95666.09;5016220;28;20120;-80
2022/02/18 07:05:37;;;;;;;10.67;2.70;;;;;;;6.07;94.02;95667.03;5016450;28;20081;-79
2022/02/18 07:08:03;;;;;;;16.53;3.30;;;;;;;6.08;94.12;95652.19;5035105;28;20056;-80
2022/02/18 07:10:29;;;;;;;15.07;3.13;;;;;;;6.10;93.25;95658.06;5033923;28;20044;-79
2022/02/18 07:12:56;;;;;;;13.83;2.70;;;;;;;6.13;93.14;95652.53;5021872;28;20033;-80
2022/02/18 07:15:21;;;;;;;11.70;2.93;;;;;;;6.16;93.19;95641.00;5037213;28;20033;-78
2022/02/18 07:17:49;;;;;;;12.77;2.63;;;;;;;6.18;94.49;95650.34;5021669;28;20425;-80
2022/02/18 07:20:16;;;;;;;14.37;2.90;;;;;;;6.22;94.18;95646.47;5038874;28;20092;-80
2022/02/18 07:22:43;;;;;;;12.10;2.70;;;;;;;6.35;93.07;95646.09;5021649;28;20037;-80
2022/02/18 07:25:14;;;;;;;8.83;2.33;;;;;;;6.37;93.30;95638.94;5069645;28;20034;-80
2022/02/18 07:27:40;;;;;;;14.30;2.33;;;;;;;6.42;93.88;95630.66;5022972;28;20526;-79
2022/02/18 07:30:06;;;;;;;14.20;2.80;;;;;;;6.49;93.88;95631.72;5020599;28;20034;-80
2022/02/18 07:32:32;;;;;;;11.90;2.60;;;;;;;6.60;93.81;95629.69;5018889;28;20037;-79
2022/02/18 07:34:58;;;;;;;14.90;2.37;;;;;;;6.64;94.41;95622.41;5018687;28;20362;-80
2022/02/18 07:37:23;;;;;;;9.60;2.40;;;;;;;6.68;94.99;95610.66;5037555;28;20037;-81
2022/02/18 07:39:49;;;;;;;12.10;3.00;;;;;;;6.78;95.43;95611.41;5019477;28;20045;-81
2022/02/18 07:42:15;;;;;;;15.17;3.40;;;;;;;6.86;95.58;95615.88;5019483;28;20072;-78
2022/02/18 07:44:44;;;;;;;13.03;3.13;;;;;;;6.92;95.24;95604.00;5038186;28;20033;-79
2022/02/18 07:47:10;;;;;;;9.47;2.17;;;;;;;6.99;95.58;95611.06;5037063;28;20056;-80
2022/02/18 07:49:36;;;;;;;14.07;2.90;;;;;;;7.06;95.06;95596.41;5020252;28;20037;-82
2022/02/18 07:52:02;;;;;;;12.90;2.60;;;;;;;7.09;95.23;95590.06;5078765;28;20037;-80
2022/02/18 07:54:28;;;;;;;13.77;3.03;;;;;;;7.16;95.63;95595.50;5056013;28;20037;-80
2022/02/18 07:56:54;;;;;;;12.67;2.63;;;;;;;7.12;95.51;95581.91;5055573;28;20044;-80
2022/02/18 07:59:19;;;;;;;12.27;2.40;;;;;;;7.14;94.84;95574.72;5039548;28;20548;-80
2022/02/18 08:01:45;;;;;;;12.93;3.50;;;;;;;7.18;95.33;95567.41;5029075;28;20033;-81
2022/02/18 08:04:11;;;;;;;10.07;2.20;;;;;;;7.18;95.11;95573.47;5036794;28;20026;-81
2022/02/18 08:06:39;;;;;;;13.00;3.13;;;;;;;7.18;96.29;95565.63;5068995;28;20026;-81
2022/02/18 08:09:04;;;;;;;19.30;3.70;;;;;;;7.22;96.38;95559.09;5068552;28;20546;-80
2022/02/18 08:11:30;;;;;;;14.40;2.60;;;;;;;7.28;96.00;95558.47;5035766;28;20576;-81
2022/02/18 08:13:55;;;;;;;9.73;2.20;;;;;;;7.33;96.35;95544.91;5067404;28;20171;-80
2022/02/18 08:16:21;;;;;;;17.53;2.87;;;;;;;7.32;97.13;95535.44;5051497;28;20029;-80
2022/02/18 08:18:48;;;;;;;14.83;3.13;;;;;;;7.36;97.54;95539.38;5034388;28;20439;-80
2022/02/18 08:21:14;;;;;;;12.93;2.60;;;;;;;7.37;97.52;95532.34;5068008;28;20038;-80
2022/02/18 08:23:41;;;;;;;9.80;2.57;;;;;;;7.33;98.32;95532.66;5036078;28;20083;-80
2022/02/18 08:26:07;;;;;;;11.60;2.30;;;;;;;7.43;98.71;95531.72;5020738;28;20048;-80
2022/02/18 08:28:34;;;;;;;12.03;4.07;;;;;;;7.50;98.34;95525.69;5022962;28;20033;-79
2022/02/18 08:30:59;;;;;;;18.90;3.87;;;;;;;7.53;98.70;95519.34;5019705;28;20119;-80
2022/02/18 08:33:25;;;;;;;15.27;3.10;;;;;;;7.59;99.07;95518.72;5018849;28;20593;-80
2022/02/18 08:35:51;;;;;;;14.77;3.80;;;;;;;7.58;99.52;95514.47;5019613;28;20056;-80
2022/02/18 08:38:16;;;;;;;12.13;2.30;;;;;;;7.67;99.52;95503.03;5029592;28;20474;-80
2022/02/18 08:40:43;;;;;;;16.00;3.47;;;;;;;7.71;100.00;95504.38;5019378;28;20037;-80
2022/02/18 08:43:09;;;;;;;11.73;2.27;;;;;;;7.66;100.00;95490.94;5040614;28;20025;-80
2022/02/18 08:45:34;;;;;;;12.00;2.43;;;;;;;7.70;100.00;95487.00;5026285;28;20029;-80
2022/02/18 08:48:00;;;;;;;10.60;2.03;;;;;;;7.74;100.00;95480.47;5027030;28;20120;-79
2022/02/18 08:50:27;;;;;;;12.03;2.90;;;;;;;7.82;100.00;95476.25;5043874;28;20356;-80
2022/02/18 08:52:53;;;;;;;10.97;2.30;;;;;;;7.87;100.00;95476.56;5026449;28;20032;-81
2022/02/18 08:55:21;;;;;;;11.37;2.10;;;;;;;7.91;100.00;95468.22;5041297;28;20037;-79
2022/02/18 08:57:48;;;;;;;15.87;2.80;;;;;;;8.04;100.00;95467.75;5024998;28;20038;-79
2022/02/18 09:00:18;;;;;;;13.37;2.57;;;;;;;8.17;100.00;95457.63;5026027;28;20087;-80
2022/02/18 09:02:44;;;;;;;10.53;2.40;;;;;;;8.20;100.00;95462.53;5041418;28;20034;-80
2022/02/18 09:05:11;;;;;;;11.17;1.67;;;;;;;8.25;100.00;95459.44;5024849;28;20088;-81
2022/02/18 09:07:39;;;;;;;10.30;2.33;;;;;;;8.33;100.00;95456.00;5038962;28;20037;-80
2022/02/18 09:10:05;;;;;;;11.43;2.50;;;;;;;8.31;100.00;95448.28;5020459;28;20679;-80
2022/02/18 09:12:37;;;;;;;12.90;2.50;;;;;;;8.30;100.00;95445.84;5031759;28;20040;-81
2022/02/18 09:15:05;;;;;;;9.73;2.73;;;;;;;8.39;100.00;95435.22;5030493;28;20037;-80
2022/02/18 09:17:31;;;;;;;12.50;2.33;;;;;;;8.89;99.12;95430.72;5026496;28;20033;-80
2022/02/18 09:19:58;;;;;;;13.23;2.20;;;;;;;9.26;95.73;95431.91;5021785;28;20037;-81
2022/02/18 09:22:25;;;;;;;13.53;2.97;;;;;;;9.29;95.79;95421.88;5022445;28;20791;-80
2022/02/18 09:24:51;;;;;;;13.23;2.80;;;;;;;9.49;94.95;95424.91;5022376;28;20546;-80
2022/02/18 09:27:17;;;;;;;12.37;2.93;;;;;;;9.47;93.99;95420.81;5021303;28;20138;-81
2022/02/18 09:29:43;;;;;;;11.57;1.90;;;;;;;9.90;92.07;95419.41;5017023;28;20483;-80
2022/02/18 09:32:09;;;;;;;10.17;2.37;;;;;;;10.44;88.94;95416.69;5017662;28;20056;-80
2022/02/18 09:34:35;;;;;;;8.93;2.87;;;;;;;10.38;88.66;95402.44;5017251;28;20057;-80
2022/02/18 09:37:00;;;;;;;11.43;2.90;;;;;;;9.96;90.91;95402.09;5033742;28;20040;-79
2022/02/18 09:39:26;;;;;;;8.77;2.37;;;;;;;9.80;91.60;95390.75;5016794;28;20063;-80
2022/02/18 09:41:54;;;;;;;12.07;3.50;;;;;;;9.76;93.46;95393.88;5016911;28;20033;-81
2022/02/18 09:44:22;;;;;;;10.43;2.50;;;;;;;9.63;93.24;95395.28;5032919;28;20515;-80
2022/02/18 09:46:49;;;;;;;11.13;3.50;;;;;;;9.63;94.16;95383.97;5033309;28;20631;-81
2022/02/18 09:49:15;;;;;;;12.57;2.30;;;;;;;9.51;95.04;95382.72;5033573;28;20124;-80
2022/02/18 09:51:41;;;;;;;12.43;2.73;;;;;;;9.42;95.96;95377.53;5033898;28;20057;-80
2022/02/18 09:54:07;;;;;;;8.90;2.57;;;;;;;9.45;95.92;95368.47;5017773;28;20033;-82
2022/02/18 09:56:34;;;;;;;9.23;2.47;;;;;;;9.57;95.60;95384.66;5035028;28;20081;-81
2022/02/18 09:59:05;;;;;;;10.57;2.60;;;;;;;9.49;95.85;95379.44;5035123;28;20028;-80
2022/02/18 10:01:31;;;;;;;11.23;3.80;;;;;;;9.62;95.98;95372.66;5034824;28;20033;-81
2022/02/18 10:03:59;;;;;;;15.03;2.60;;;;;;;9.53;97.03;95371.06;5018102;28;20040;-78
2022/02/18 10:06:28;;;;;;;12.97;2.97;;;;;;;9.59;97.79;95367.75;5017519;28;20376;-81
2022/02/18 10:08:53;;;;;;;8.97;2.40;;;;;;;9.70;98.55;95365.72;5034746;28;20068;-80
2022/02/18 10:11:19;;;;;;;11.77;3.10;;;;;;;9.86;99.28;95347.22;5034170;28;20054;-82
2022/02/18 10:13:46;;;;;;;7.20;2.10;;;;;;;10.10;99.57;95338.31;5017396;28;20045;-81
2022/02/18 10:16:18;;;;;;;6.03;1.87;;;;;;;10.37;99.04;95334.31;5034134;28;20038;-81
2022/02/18 10:19:08;;;;;;;5.73;1.43;;;;;;;10.50;97.42;95334.50;5034110;28;20040;-80
2022/02/18 10:21:38;;;;;;;4.47;0.90;;;;;;;10.69;96.76;95324.41;5066799;28;20041;-81
2022/02/18 10:24:07;;;;;;;4.27;0.90;;;;;;;10.93;96.63;95320.69;5033861;28;20386;-81
2022/02/18 10:26:38;;;;;;;3.70;0.90;;;;;;;10.81;95.97;95313.25;5017480;28;20049;-80
2022/02/18 10:29:09;;;;;;;5.63;1.27;;;;;;;10.90;95.68;95310.53;5015916;28;20030;-81
2022/02/18 10:31:36;;;;;;;4.90;1.10;;;;;;;10.85;95.48;95297.94;5022706;28;20065;-80
2022/02/18 10:34:01;;;;;;;3.57;0.90;;;;;;;10.92;95.59;95300.63;5040662;28;20598;-81
2022/02/18 10:36:39;;;;;;;3.73;0.90;;;;;;;10.88;94.98;95297.56;5022935;28;20029;-81
2022/02/18 10:39:26;;;;;;;4.00;1.03;;;;;;;10.98;95.09;95292.81;5034111;28;20033;-81
2022/02/18 10:41:57;;;;;;;4.57;1.20;;;;;;;11.08;94.79;95292.53;5041084;28;20383;-79
2022/02/18 10:44:28;;;;;;;4.60;1.13;;;;;;;11.25;94.44;95280.78;5036530;28;20029;-80
2022/02/18 10:46:57;;;;;;;5.40;1.17;;;;;;;11.34;93.31;95270.97;5036009;28;20033;-80
2022/02/18 10:49:26;;;;;;;3.40;1.03;;;;;;;11.28;93.56;95279.59;5036826;28;20044;-80
2022/02/18 10:51:52;;;;;;;4.23;0.93;;;;;;;11.32;92.93;95257.16;5066927;28;20506;-80
2022/02/18 10:54:29;;;;;;;3.87;0.87;;;;;;;11.42;92.97;95256.84;5018659;28;20033;-81
2022/02/18 10:57:14;;;;;;;3.57;0.70;;;;;;;11.47;92.12;95247.38;5035811;28;20032;-81
2022/02/18 10:59:41;;;;;;;5.20;2.27;;;;;;;11.49;91.55;95242.72;5053558;28;20036;-80
2022/02/18 11:02:07;;;;;;;3.53;1.10;;;;;;;11.67;90.60;95238.81;5044779;28;20064;-81
2022/02/18 11:04:34;;;;;;;7.90;1.93;;;;;;;11.75;89.93;95246.59;5034219;28;20026;-80
2022/02/18 11:07:13;;;;;;;4.50;1.47;;;;;;;11.97;89.98;95242.13;5070947;28;20398;-81
2022/02/18 11:09:41;;;;;;;5.43;1.40;;;;;;;12.13;88.72;95233.13;5036377;28;20033;-81
2022/02/18 11:12:09;;;;;;;5.07;1.03;;;;;;;12.08;87.86;95230.25;5029119;28;20028;-82
2022/02/18 11:14:39;;;;;;;10.13;1.30;;;;;;;12.11;87.56;95221.97;5050159;28;20087;-80
2022/02/18 11:17:06;;;;;;;5.60;1.30;;;;;;;12.18;87.34;95215.72;5055804;28;20033;-80
2022/02/18 11:19:32;;;;;;;6.50;1.10;;;;;;;12.14;87.43;95224.19;5034119;28;20051;-81
2022/02/18 11:21:58;;;;;;;4.70;0.90;;;;;;;12.44;86.34;95201.88;5032717;28;20056;-82
2022/02/18 11:24:25;;;;;;;5.87;1.20;;;;;;;12.68;84.55;95189.19;5016929;28;20033;-81
2022/02/18 11:26:52;;;;;;;10.00;2.73;;;;;;;12.89;83.00;95185.59;5016591;28;20028;-81
2022/02/18 11:29:20;;;;;;;4.00;0.87;;;;;;;12.96;84.01;95181.13;5015914;28;20033;-82
2022/02/18 11:31:58;;;;;;;8.00;1.27;;;;;;;13.70;80.02;95156.44;5011431;28;20053;-81
2022/02/18 11:34:53;;;;;;;2.33;0.90;;;;;;;14.10;77.06;95138.66;5014905;28;20555;-83